createdAt,value
2022-12-31T00:01:01.375Z,100433.88
2022-12-31T00:03:31.833Z,100448.66
2022-12-31T00:06:00.881Z,100458.59
2022-12-31T00:08:27.858Z,100456.94
2022-12-31T00:10:54.505Z,100451.00
2022-12-31T00:13:24.015Z,100458.75
2022-12-31T00:15:50.702Z,100465.09
2022-12-31T00:18:23.717Z,100465.94
2022-12-31T00:20:50.331Z,100472.16
2022-12-31T00:23:19.592Z,100470.44
2022-12-31T00:25:46.164Z,100473.16
2022-12-31T00:28:15.459Z,100475.75
2022-12-31T00:30:42.391Z,100469.72
2022-12-31T00:33:09.023Z,100481.88
2022-12-31T00:35:36.544Z,100472.06
2022-12-31T00:38:11.645Z,100471.91
2022-12-31T00:40:38.254Z,100486.84
2022-12-31T00:43:05.058Z,100482.78
2022-12-31T00:45:38.180Z,100483.69
2022-12-31T00:48:08.012Z,100487.19
2022-12-31T00:50:34.667Z,100493.53
2022-12-31T00:53:01.299Z,100483.13
2022-12-31T00:55:27.916Z,100494.41
2022-12-31T00:57:54.820Z,100495.97
2022-12-31T01:00:21.927Z,100500.41
2022-12-31T01:02:48.668Z,100501.34
2022-12-31T01:05:18.475Z,100510.28
2022-12-31T01:07:47.545Z,100506.00
2022-12-31T01:10:34.105Z,100513.78
2022-12-31T01:13:00.723Z,100525.09
2022-12-31T01:15:27.877Z,100522.53
2022-12-31T01:17:54.584Z,100522.53
2022-12-31T01:20:21.236Z,100527.75
2022-12-31T01:22:47.837Z,100534.69
2022-12-31T01:25:14.539Z,100531.75
2022-12-31T01:27:42.266Z,100535.88
2022-12-31T01:30:09.451Z,100535.94
2022-12-31T01:32:39.191Z,100531.38
2022-12-31T01:35:06.347Z,100545.47
2022-12-31T01:37:38.435Z,100549.91
2022-12-31T01:40:08.468Z,100537.63
2022-12-31T01:42:35.099Z,100540.97
2022-12-31T01:45:01.802Z,100537.44
2022-12-31T01:47:40.994Z,100537.06
2022-12-31T01:50:27.792Z,100541.50
2022-12-31T01:53:00.800Z,100550.09
2022-12-31T01:55:30.318Z,100556.22
2022-12-31T01:58:11.090Z,100555.97
2022-12-31T02:00:38.075Z,100550.41
2022-12-31T02:03:10.466Z,100548.03
2022-12-31T02:05:46.344Z,100553.22
2022-12-31T02:08:13.055Z,100551.47
2022-12-31T02:10:39.812Z,100553.97
2022-12-31T02:13:10.107Z,100549.66
2022-12-31T02:16:05.280Z,100543.44
2022-12-31T02:18:51.341Z,100558.75
2022-12-31T02:21:59.960Z,100570.91
2022-12-31T02:24:37.140Z,100568.88
2022-12-31T02:27:08.902Z,100575.91
2022-12-31T02:29:56.925Z,100569.81
2022-12-31T02:32:27.951Z,100560.25
2022-12-31T02:34:59.805Z,100560.41
2022-12-31T02:37:29.049Z,100567.41
2022-12-31T02:39:56.567Z,100560.31
2022-12-31T02:42:23.121Z,100550.75
2022-12-31T02:44:49.756Z,100544.94
2022-12-31T02:47:39.319Z,100530.31
2022-12-31T02:50:16.519Z,100534.81
2022-12-31T02:53:26.394Z,100542.13
2022-12-31T02:56:14.777Z,100524.69
2022-12-31T02:59:08.885Z,100539.09
2022-12-31T03:02:01.933Z,100543.38
2022-12-31T03:04:34.355Z,100546.72
2022-12-31T03:07:02.721Z,100540.41
2022-12-31T03:09:29.348Z,100543.63
2022-12-31T03:12:14.938Z,100547.91
2022-12-31T03:14:47.720Z,100542.25
2022-12-31T03:17:14.402Z,100541.22
2022-12-31T03:20:00.003Z,100548.28
2022-12-31T03:22:32.303Z,100540.44
2022-12-31T03:25:17.345Z,100540.09
2022-12-31T03:27:44.775Z,100542.22
2022-12-31T03:30:13.316Z,100539.16
2022-12-31T03:32:40.569Z,100540.31
2022-12-31T03:35:08.083Z,100536.25
2022-12-31T03:37:34.666Z,100529.97
2022-12-31T03:40:03.978Z,100530.09
2022-12-31T03:42:37.323Z,100538.84
2022-12-31T03:45:04.348Z,100524.56
2022-12-31T03:47:31.167Z,100530.84
2022-12-31T03:50:00.944Z,100518.63
2022-12-31T03:52:27.603Z,100520.56
2022-12-31T03:54:54.532Z,100520.09
2022-12-31T03:57:25.418Z,100520.06
2022-12-31T03:59:54.690Z,100521.91
2022-12-31T04:02:28.125Z,100516.59
2022-12-31T04:05:02.428Z,100507.50
2022-12-31T04:07:29.098Z,100499.94
2022-12-31T04:09:56.300Z,100489.44
2022-12-31T04:12:22.956Z,100491.94
2022-12-31T04:14:49.663Z,100493.72
2022-12-31T04:17:16.316Z,100505.13
2022-12-31T04:19:43.072Z,100506.16
2022-12-31T04:22:13.462Z,100503.22
2022-12-31T04:24:40.165Z,100487.88
2022-12-31T04:27:08.034Z,100491.28
2022-12-31T04:29:35.592Z,100507.50
2022-12-31T04:32:09.076Z,100504.88
2022-12-31T04:34:35.906Z,100506.41
2022-12-31T04:37:03.181Z,100505.44
2022-12-31T04:39:29.862Z,100509.69
2022-12-31T04:41:56.602Z,100508.53
2022-12-31T04:44:23.295Z,100506.88
2022-12-31T04:46:52.847Z,100503.53
2022-12-31T04:49:22.662Z,100481.97
2022-12-31T04:51:49.337Z,100482.94
2022-12-31T04:54:15.979Z,100484.13
2022-12-31T04:56:42.776Z,100476.59
2022-12-31T04:59:10.469Z,100480.88
2022-12-31T05:01:38.760Z,100468.59
2022-12-31T05:04:05.664Z,100458.28
2022-12-31T05:06:32.856Z,100456.63
2022-12-31T05:09:03.470Z,100452.63
2022-12-31T05:11:30.115Z,100459.81
2022-12-31T05:13:56.732Z,100465.00
2022-12-31T05:16:24.436Z,100466.03
2022-12-31T05:18:53.981Z,100464.06
2022-12-31T05:21:21.748Z,100463.88
2022-12-31T05:23:49.241Z,100465.59
2022-12-31T05:26:19.766Z,100470.84
2022-12-31T05:28:46.462Z,100456.94
2022-12-31T05:31:13.156Z,100469.91
2022-12-31T05:33:40.012Z,100482.00
2022-12-31T05:36:07.212Z,100474.16
2022-12-31T05:38:34.048Z,100467.88
2022-12-31T05:41:02.671Z,100459.22
2022-12-31T05:43:29.504Z,100455.69
2022-12-31T05:46:05.700Z,100455.16
2022-12-31T05:48:35.692Z,100451.09
2022-12-31T05:51:02.324Z,100435.28
2022-12-31T05:53:30.034Z,100431.78
2022-12-31T05:55:56.647Z,100431.06
2022-12-31T05:58:29.034Z,100433.81
2022-12-31T06:01:02.173Z,100431.31
2022-12-31T06:03:28.869Z,100429.34
2022-12-31T06:05:55.499Z,100430.09
2022-12-31T06:08:24.011Z,100424.72
2022-12-31T06:10:50.893Z,100424.06
2022-12-31T06:13:17.526Z,100422.16
2022-12-31T06:15:44.138Z,100406.13
2022-12-31T06:18:13.072Z,100406.84
2022-12-31T06:20:39.717Z,100418.16
2022-12-31T06:23:06.419Z,100411.03
2022-12-31T06:25:35.393Z,100409.06
2022-12-31T06:28:02.074Z,100400.03
2022-12-31T06:30:34.660Z,100398.53
2022-12-31T06:33:01.339Z,100389.81
2022-12-31T06:35:28.039Z,100402.88
2022-12-31T06:37:54.673Z,100393.72
2022-12-31T06:40:21.346Z,100391.56
2022-12-31T06:42:48.025Z,100389.22
2022-12-31T06:45:14.720Z,100394.03
2022-12-31T06:47:41.578Z,100395.34
2022-12-31T06:50:13.442Z,100395.00
2022-12-31T06:52:42.925Z,100388.50
2022-12-31T06:55:10.636Z,100400.00
2022-12-31T06:57:47.096Z,100395.66
2022-12-31T07:00:14.378Z,100396.75
2022-12-31T07:03:02.840Z,100394.53
2022-12-31T07:05:49.940Z,100401.28
2022-12-31T07:08:44.629Z,100401.72
2022-12-31T07:11:32.655Z,100393.19
2022-12-31T07:14:32.400Z,100386.00
2022-12-31T07:17:38.288Z,100383.00
2022-12-31T07:20:20.408Z,100377.09
2022-12-31T07:22:47.285Z,100380.25
2022-12-31T07:25:16.093Z,100383.13
2022-12-31T07:28:21.077Z,100385.00
2022-12-31T07:30:59.661Z,100389.69
2022-12-31T07:33:44.580Z,100384.75
2022-12-31T07:36:39.216Z,100383.97
2022-12-31T07:39:25.930Z,100392.00
2022-12-31T07:41:53.189Z,100380.47
2022-12-31T07:44:56.340Z,100387.88
2022-12-31T07:47:26.001Z,100389.34
2022-12-31T07:49:56.461Z,100404.38
2022-12-31T07:52:23.886Z,100401.78
2022-12-31T07:54:50.986Z,100396.66
2022-12-31T07:57:26.591Z,100403.81
2022-12-31T08:00:06.989Z,100409.00
2022-12-31T08:02:58.458Z,100422.78
2022-12-31T08:05:40.102Z,100414.72
2022-12-31T08:08:34.349Z,100414.06
2022-12-31T08:11:45.962Z,100425.09
2022-12-31T08:14:21.224Z,100423.47
2022-12-31T08:16:55.627Z,100421.38
2022-12-31T08:19:30.749Z,100414.97
2022-12-31T08:22:15.763Z,100419.59
2022-12-31T08:25:17.262Z,100409.47
2022-12-31T08:28:14.781Z,100418.38
2022-12-31T08:30:52.484Z,100415.50
2022-12-31T08:33:37.636Z,100409.03
2022-12-31T08:36:23.041Z,100420.53
2022-12-31T08:39:20.980Z,100413.38
2022-12-31T08:41:54.033Z,100417.13
2022-12-31T08:44:45.042Z,100424.69
2022-12-31T08:48:09.000Z,100426.91
2022-12-31T08:50:36.025Z,100425.97
2022-12-31T08:53:03.578Z,100436.78
2022-12-31T08:55:30.731Z,100422.91
2022-12-31T08:58:19.099Z,100421.59
2022-12-31T09:00:55.248Z,100425.22
2022-12-31T09:03:26.130Z,100437.44
2022-12-31T09:06:14.030Z,100438.22
2022-12-31T09:09:25.177Z,100442.16
2022-12-31T09:12:06.023Z,100433.25
2022-12-31T09:14:48.441Z,100434.03
2022-12-31T09:17:43.941Z,100432.50
2022-12-31T09:20:42.651Z,100441.78
2022-12-31T09:23:10.781Z,100443.97
2022-12-31T09:25:52.953Z,100440.69
2022-12-31T09:28:43.405Z,100446.19
2022-12-31T09:31:20.539Z,100446.34
2022-12-31T09:33:59.717Z,100445.03
2022-12-31T09:36:32.082Z,100443.72
2022-12-31T09:39:15.806Z,100430.81
2022-12-31T09:42:00.668Z,100440.00
2022-12-31T09:45:03.171Z,100436.44
2022-12-31T09:47:29.753Z,100441.50
2022-12-31T09:49:59.293Z,100441.34
2022-12-31T09:52:38.384Z,100441.38
2022-12-31T09:55:07.773Z,100440.69
2022-12-31T09:57:40.371Z,100437.19
2022-12-31T10:00:12.030Z,100430.03
2022-12-31T10:02:48.041Z,100422.31
2022-12-31T10:05:35.650Z,100421.88
2022-12-31T10:08:10.486Z,100430.75
2022-12-31T10:11:08.561Z,100415.53
2022-12-31T10:14:16.813Z,100408.94
2022-12-31T10:17:06.418Z,100422.25
2022-12-31T10:20:28.079Z,100422.00
2022-12-31T10:23:04.470Z,100426.63
2022-12-31T10:25:40.820Z,100424.63
2022-12-31T10:28:45.737Z,100435.19
2022-12-31T10:31:43.194Z,100433.13
2022-12-31T10:34:43.268Z,100425.75
2022-12-31T10:37:25.816Z,100440.19
2022-12-31T10:40:04.796Z,100450.25
2022-12-31T10:42:46.641Z,100431.28
2022-12-31T10:45:44.442Z,100430.41
2022-12-31T10:48:29.040Z,100432.13
2022-12-31T10:51:20.898Z,100440.06
2022-12-31T10:53:50.210Z,100447.53
2022-12-31T10:56:38.655Z,100450.34
2022-12-31T10:59:32.894Z,100450.00
2022-12-31T11:02:27.062Z,100457.19
2022-12-31T11:05:26.098Z,100458.22
2022-12-31T11:08:28.991Z,100463.91
2022-12-31T11:11:31.127Z,100477.59
2022-12-31T11:14:39.706Z,100464.50
2022-12-31T11:17:43.759Z,100476.03
2022-12-31T11:20:10.826Z,100474.50
2022-12-31T11:22:56.877Z,100474.78
2022-12-31T11:25:30.202Z,100477.59
2022-12-31T11:28:15.452Z,100475.53
2022-12-31T11:31:04.108Z,100474.31
2022-12-31T11:34:10.755Z,100472.97
2022-12-31T11:37:14.863Z,100471.19
2022-12-31T11:40:26.280Z,100478.28
2022-12-31T11:43:02.551Z,100473.84
2022-12-31T11:46:08.060Z,100471.53
2022-12-31T11:48:59.564Z,100460.53
2022-12-31T11:51:32.330Z,100470.72
2022-12-31T11:54:37.390Z,100473.94
2022-12-31T11:57:36.829Z,100460.94
2022-12-31T12:00:14.888Z,100470.38
2022-12-31T12:03:01.612Z,100469.34
2022-12-31T12:05:28.546Z,100475.41
2022-12-31T12:07:55.519Z,100476.00
2022-12-31T12:10:29.108Z,100471.06
2022-12-31T12:13:00.692Z,100478.59
2022-12-31T12:15:35.594Z,100473.28
2022-12-31T12:18:09.768Z,100471.59
2022-12-31T12:20:41.044Z,100471.94
2022-12-31T12:23:17.743Z,100477.88
2022-12-31T12:25:45.044Z,100469.06
2022-12-31T12:28:26.857Z,100468.34
2022-12-31T12:30:59.957Z,100473.84
2022-12-31T12:33:29.797Z,100462.03
2022-12-31T12:36:19.748Z,100467.66
2022-12-31T12:38:47.541Z,100466.16
2022-12-31T12:41:25.205Z,100456.97
2022-12-31T12:44:03.186Z,100469.38
2022-12-31T12:46:47.754Z,100469.69
2022-12-31T12:49:27.877Z,100468.94
2022-12-31T12:52:16.085Z,100478.41
2022-12-31T12:55:04.231Z,100473.44
2022-12-31T12:57:50.625Z,100461.56
2022-12-31T13:00:21.653Z,100463.16
2022-12-31T13:03:09.904Z,100467.81
2022-12-31T13:05:45.269Z,100469.59
2022-12-31T13:08:37.199Z,100467.50
2022-12-31T13:11:06.544Z,100468.97
2022-12-31T13:13:43.955Z,100473.44
2022-12-31T13:16:50.651Z,100469.44
2022-12-31T13:19:29.033Z,100473.22
2022-12-31T13:22:01.364Z,100470.56
2022-12-31T13:24:27.906Z,100476.53
2022-12-31T13:27:24.121Z,100483.00
2022-12-31T13:29:52.898Z,100484.28
2022-12-31T13:32:24.364Z,100494.56
2022-12-31T13:34:56.359Z,100491.16
2022-12-31T13:37:38.063Z,100494.97
2022-12-31T13:40:21.162Z,100507.06
2022-12-31T13:43:01.241Z,100493.47
2022-12-31T13:45:38.942Z,100495.38
2022-12-31T13:48:12.268Z,100505.78
2022-12-31T13:50:46.784Z,100491.88
2022-12-31T13:53:27.605Z,100500.19
2022-12-31T13:56:03.775Z,100506.94
2022-12-31T13:58:40.047Z,100505.03
2022-12-31T14:01:34.007Z,100512.03
2022-12-31T14:04:28.337Z,100530.16
2022-12-31T14:07:02.665Z,100552.84
2022-12-31T14:09:33.790Z,100547.16
2022-12-31T14:12:08.586Z,100545.22
2022-12-31T14:14:54.144Z,100551.22
2022-12-31T14:17:51.053Z,100559.44
2022-12-31T14:20:17.677Z,100559.03
2022-12-31T14:22:56.373Z,100572.44
2022-12-31T14:25:29.185Z,100567.09
2022-12-31T14:27:59.607Z,100581.59
2022-12-31T14:30:31.272Z,100589.84
2022-12-31T14:33:18.526Z,100604.44
2022-12-31T14:35:51.560Z,100596.47
2022-12-31T14:38:31.044Z,100584.84
2022-12-31T14:41:15.684Z,100609.44
2022-12-31T14:43:58.980Z,100600.28
2022-12-31T14:46:35.568Z,100618.53
2022-12-31T14:49:13.440Z,100614.75
2022-12-31T14:51:40.141Z,100620.13
2022-12-31T14:54:28.926Z,100628.44
2022-12-31T14:57:10.368Z,100630.72
2022-12-31T14:59:40.487Z,100631.47
2022-12-31T15:02:38.458Z,100637.53
2022-12-31T15:05:22.491Z,100640.53
2022-12-31T15:07:55.977Z,100642.31
2022-12-31T15:10:59.826Z,100644.31
2022-12-31T15:13:50.058Z,100652.63
2022-12-31T15:16:35.116Z,100655.28
2022-12-31T15:19:31.195Z,100663.34
2022-12-31T15:22:30.705Z,100660.22
2022-12-31T15:24:58.095Z,100644.22
2022-12-31T15:27:37.716Z,100652.25
2022-12-31T15:30:06.290Z,100641.75
2022-12-31T15:32:40.028Z,100646.09
2022-12-31T15:35:21.799Z,100650.94
2022-12-31T15:38:19.795Z,100663.22
2022-12-31T15:40:56.317Z,100666.81
2022-12-31T15:43:57.233Z,100676.53
2022-12-31T15:46:31.059Z,100674.09
2022-12-31T15:49:11.775Z,100662.38
2022-12-31T15:51:59.754Z,100657.06
2022-12-31T15:54:42.699Z,100664.63
2022-12-31T15:57:26.522Z,100664.94
2022-12-31T16:00:02.168Z,100664.72
2022-12-31T16:02:29.156Z,100665.22
2022-12-31T16:04:56.251Z,100669.38
2022-12-31T16:07:27.418Z,100662.94
2022-12-31T16:09:56.367Z,100670.75
2022-12-31T16:12:30.937Z,100679.06
2022-12-31T16:15:00.327Z,100670.28
2022-12-31T16:17:27.110Z,100686.31
2022-12-31T16:19:57.246Z,100689.91
2022-12-31T16:22:50.572Z,100683.88
2022-12-31T16:25:30.582Z,100679.56
2022-12-31T16:28:00.928Z,100680.91
2022-12-31T16:30:32.305Z,100677.13
2022-12-31T16:33:01.636Z,100679.22
2022-12-31T16:35:37.191Z,100682.03
2022-12-31T16:38:09.931Z,100691.34
2022-12-31T16:40:36.658Z,100686.41
2022-12-31T16:43:06.624Z,100690.69
2022-12-31T16:45:38.646Z,100702.84
2022-12-31T16:48:17.249Z,100707.97
2022-12-31T16:50:50.792Z,100713.25
2022-12-31T16:53:21.843Z,100712.22
2022-12-31T16:55:55.845Z,100704.78
2022-12-31T16:58:35.147Z,100702.88
2022-12-31T17:01:22.549Z,100705.34
2022-12-31T17:03:58.874Z,100713.94
2022-12-31T17:06:28.190Z,100716.25
2022-12-31T17:09:06.551Z,100712.66
2022-12-31T17:11:42.082Z,100710.94
2022-12-31T17:14:08.668Z,100701.69
2022-12-31T17:16:38.372Z,100708.50
2022-12-31T17:19:05.121Z,100701.59
2022-12-31T17:21:32.896Z,100681.78
2022-12-31T17:24:06.614Z,100697.13
2022-12-31T17:26:37.243Z,100692.78
2022-12-31T17:29:05.987Z,100696.19
2022-12-31T17:31:40.947Z,100707.25
2022-12-31T17:34:16.319Z,100714.94
2022-12-31T17:37:01.485Z,100720.22
2022-12-31T17:39:45.115Z,100727.13
2022-12-31T17:42:13.877Z,100730.66
2022-12-31T17:44:43.735Z,100730.34
2022-12-31T17:47:15.366Z,100728.44
2022-12-31T17:49:45.931Z,100724.50
2022-12-31T17:52:16.203Z,100722.47
2022-12-31T17:54:43.261Z,100722.22
2022-12-31T17:57:22.707Z,100730.16
2022-12-31T17:59:49.444Z,100735.63
2022-12-31T18:02:16.219Z,100720.59
2022-12-31T18:04:46.103Z,100716.53
2022-12-31T18:07:12.763Z,100712.25
2022-12-31T18:09:42.497Z,100720.19
2022-12-31T18:12:09.895Z,100711.44
2022-12-31T18:14:36.509Z,100715.28
2022-12-31T18:17:03.168Z,100720.91
2022-12-31T18:20:02.913Z,100725.50
2022-12-31T18:22:17.452Z,100718.88
2022-12-31T18:24:44.453Z,100717.81
2022-12-31T18:27:20.254Z,100715.75
2022-12-31T18:29:46.977Z,100717.44
2022-12-31T18:32:22.622Z,100723.06
2022-12-31T18:34:49.951Z,100714.78
2022-12-31T18:37:21.769Z,100714.78
2022-12-31T18:39:49.005Z,100721.31
2022-12-31T18:42:18.658Z,100726.59
2022-12-31T18:44:46.640Z,100728.94
2022-12-31T18:47:18.483Z,100723.09
2022-12-31T18:49:45.302Z,100724.38
2022-12-31T18:52:28.664Z,100731.59
2022-12-31T18:54:55.290Z,100738.66
2022-12-31T18:57:21.938Z,100746.06
2022-12-31T18:59:48.549Z,100736.97
2022-12-31T19:02:20.287Z,100737.03
2022-12-31T19:04:48.735Z,100740.97
2022-12-31T19:07:15.377Z,100742.25
2022-12-31T19:09:46.344Z,100739.88
2022-12-31T19:12:20.844Z,100730.41
2022-12-31T19:14:47.652Z,100727.25
2022-12-31T19:17:14.494Z,100732.88
2022-12-31T19:19:41.175Z,100732.03
2022-12-31T19:22:15.015Z,100720.84
2022-12-31T19:24:45.009Z,100736.81
2022-12-31T19:27:11.855Z,100738.25
2022-12-31T19:29:38.486Z,100736.47
2022-12-31T19:32:05.535Z,100739.53
2022-12-31T19:34:32.188Z,100728.94
2022-12-31T19:37:10.793Z,100740.81
2022-12-31T19:39:39.635Z,100728.00
2022-12-31T19:42:09.129Z,100720.50
2022-12-31T19:44:38.519Z,100730.50
2022-12-31T19:47:05.460Z,100729.03
2022-12-31T19:49:32.062Z,100719.22
2022-12-31T19:51:58.682Z,100720.34
2022-12-31T19:54:25.372Z,100721.47
2022-12-31T19:56:52.103Z,100720.53
2022-12-31T19:59:18.744Z,100724.78
2022-12-31T20:01:45.727Z,100714.03
2022-12-31T20:04:14.211Z,100710.78
2022-12-31T20:06:40.857Z,100718.28
2022-12-31T20:09:07.868Z,100712.59
2022-12-31T20:11:34.701Z,100712.84
2022-12-31T20:14:04.376Z,100719.16
2022-12-31T20:16:31.961Z,100726.22
2022-12-31T20:19:01.567Z,100727.53
2022-12-31T20:21:29.752Z,100727.59
2022-12-31T20:23:56.745Z,100741.91
2022-12-31T20:26:24.949Z,100732.28
2022-12-31T20:28:54.522Z,100734.59
2022-12-31T20:31:25.867Z,100732.34
2022-12-31T20:33:54.371Z,100735.09
2022-12-31T20:36:25.847Z,100735.16
2022-12-31T20:38:52.553Z,100723.75
2022-12-31T20:41:26.286Z,100730.63
2022-12-31T20:43:53.008Z,100723.47
2022-12-31T20:46:25.173Z,100742.34
2022-12-31T20:48:53.827Z,100743.94
2022-12-31T20:51:24.213Z,100744.69
2022-12-31T20:53:56.570Z,100746.69
2022-12-31T20:56:25.223Z,100740.72
2022-12-31T20:58:57.245Z,100725.03
2022-12-31T21:01:25.217Z,100730.31
2022-12-31T21:04:04.983Z,100713.38
2022-12-31T21:06:35.515Z,100721.38
2022-12-31T21:09:04.760Z,100731.25
2022-12-31T21:11:49.927Z,100721.53
2022-12-31T21:14:16.619Z,100717.97
2022-12-31T21:16:43.536Z,100724.34
2022-12-31T21:19:10.193Z,100717.34
2022-12-31T21:21:37.404Z,100730.25
2022-12-31T21:24:04.292Z,100729.19
2022-12-31T21:26:30.983Z,100728.69
2022-12-31T21:28:57.862Z,100738.66
2022-12-31T21:31:24.586Z,100731.66
2022-12-31T21:33:51.337Z,100729.88
2022-12-31T21:36:18.144Z,100741.13
2022-12-31T21:38:45.133Z,100745.00
2022-12-31T21:41:34.113Z,100739.34
2022-12-31T21:44:07.789Z,100743.03
2022-12-31T21:46:34.590Z,100746.41
2022-12-31T21:49:01.522Z,100750.94
2022-12-31T21:51:29.005Z,100749.81
2022-12-31T21:53:55.775Z,100748.47
2022-12-31T21:56:22.876Z,100758.19
2022-12-31T21:59:16.900Z,100758.41
2022-12-31T22:02:02.268Z,100760.91
2022-12-31T22:05:00.805Z,100770.63
2022-12-31T22:07:15.733Z,100768.13
2022-12-31T22:09:42.350Z,100773.84
2022-12-31T22:12:09.011Z,100768.19
2022-12-31T22:14:35.651Z,100768.34
2022-12-31T22:17:02.313Z,100771.13
2022-12-31T22:19:28.906Z,100769.56
2022-12-31T22:21:55.579Z,100767.00
2022-12-31T22:24:22.257Z,100774.78
2022-12-31T22:26:59.748Z,100765.34
2022-12-31T22:29:46.316Z,100771.22
2022-12-31T22:32:12.922Z,100772.16
2022-12-31T22:34:39.527Z,100772.09
2022-12-31T22:37:27.508Z,100777.81
2022-12-31T22:39:52.826Z,100783.16
2022-12-31T22:42:19.445Z,100772.66
2022-12-31T22:44:46.026Z,100785.66
2022-12-31T22:47:12.652Z,100778.19
2022-12-31T22:49:39.257Z,100792.59
2022-12-31T22:52:15.203Z,100799.59
2022-12-31T22:54:41.838Z,100798.41
2022-12-31T22:57:08.478Z,100797.66
2022-12-31T22:59:43.769Z,100802.28
2022-12-31T23:02:10.440Z,100811.22
2022-12-31T23:04:37.036Z,100813.41
2022-12-31T23:07:03.810Z,100810.75
2022-12-31T23:09:48.969Z,100813.03
2022-12-31T23:12:15.648Z,100808.75
2022-12-31T23:15:00.795Z,100808.34
2022-12-31T23:17:46.186Z,100810.28
2022-12-31T23:20:37.887Z,100818.03
2022-12-31T23:23:11.755Z,100807.56
2022-12-31T23:25:50.574Z,100807.88
2022-12-31T23:28:23.672Z,100807.03
2022-12-31T23:30:51.733Z,100811.75
2022-12-31T23:33:21.222Z,100813.91
2022-12-31T23:35:48.667Z,100816.97
2022-12-31T23:38:17.580Z,100808.03
2022-12-31T23:40:44.585Z,100806.09
2022-12-31T23:43:19.717Z,100802.53
2022-12-31T23:45:46.449Z,100805.69
2022-12-31T23:48:13.097Z,100810.47
2022-12-31T23:50:52.429Z,100808.56
2022-12-31T23:53:19.889Z,100817.31
2022-12-31T23:55:46.736Z,100809.91
2022-12-31T23:58:13.419Z,100817.59
